Millville Municipal Airport
KMIV : now visible

Airfield :











YOU CAN JOIN US ON...

 
LOGIN :

Register | Disclaimer

   EN    FR    IT 

 









Legend :    VFR   Marginal VFR   IFR   Intensive IFR   Very Intensive IFR
Visi :
Ceiling :
>= 8 km
>= 3000ft
5 to 8 km
1000 to 3000 ft
1500m to 5 km
500 to 1000 ft
800 to 1500m
200 to 500 ft
< 800m
< 200 ft
Symbols :   Thunderstorms  Fog  Heavy snow  Heavy precipitations  Wind > 20 kt






- Airport Elevation : 85 ft


KMIV - Millville Municipal

CURRENT METAR :
  • 020954Z AUTO VRB05KT 10SM CLR 25/21 A2995 RMK AO2 SLP139 T02500211

EXPIRED METARs :
  • 020854Z AUTO 23005KT 10SM CLR 25/22 A2994 RMK AO2 SLP136 T02500217 56008
  • 012154Z AUTO VRB04KT 10SM CLR 27/21 A3000 RMK AO2 SLP158 T02670211
  • 020754Z AUTO VRB04KT 10SM CLR 25/22 A2994 RMK AO2 SLP137 T02500217

TAF KMIV
Valid from the 02 at 06:00 until the 03 at 06:00 UTC


020522Z 0206/0306 20006KT P6SM FEW080 BKN200
FM021200 23008KT P6SM SCT040 BKN060
FM021800 23010G17KT P6SM BKN060
PROB30 0222/0302 4SM TSRA BKN025CB OVC060
FM030200 VRB03KT 6SM -SHRA BR BKN060
KZDC FIR / North America



MET'MAP, your aeronautical weather chart ! - Copyright ORBIFLY December 2007 - Disclaimer

ORBIFLY MET'MAP TEAM :

Programming & Development : Alexandra Zaïnal
Original concept : Baudouin d'Aumeries
Technical & hardware support : Manuel Goepfert
Assistance : Marc-Olivier Méhu




SOURCES & CREDITS :

   NOAA       Earth
Advisory